createdAt,value
2022-07-26T00:02:53.487Z,22.97
2022-07-26T00:05:21.437Z,22.95
2022-07-26T00:07:49.312Z,22.93
2022-07-26T00:10:18.842Z,22.91
2022-07-26T00:12:46.603Z,22.88
2022-07-26T00:15:14.697Z,22.86
2022-07-26T00:17:42.473Z,22.86
2022-07-26T00:20:12.270Z,22.84
2022-07-26T00:22:41.745Z,22.81
2022-07-26T00:25:10.688Z,22.80
2022-07-26T00:27:38.804Z,22.80
2022-07-26T00:30:08.532Z,22.79
2022-07-26T00:32:36.522Z,22.78
2022-07-26T00:35:04.900Z,22.71
2022-07-26T00:37:34.301Z,22.73
2022-07-26T00:40:02.592Z,22.73
2022-07-26T00:42:30.432Z,22.73
2022-07-26T00:44:58.289Z,22.74
2022-07-26T00:47:26.336Z,22.74
2022-07-26T00:49:54.115Z,22.73
2022-07-26T00:52:21.954Z,22.73
2022-07-26T00:54:52.014Z,22.73
2022-07-26T00:57:19.769Z,22.66
2022-07-26T00:59:47.520Z,22.69
2022-07-26T01:02:16.053Z,22.68
2022-07-26T01:04:45.254Z,22.61
2022-07-26T01:07:14.983Z,22.62
2022-07-26T01:09:44.058Z,22.61
2022-07-26T01:12:13.260Z,22.61
2022-07-26T01:14:43.426Z,22.61
2022-07-26T01:17:11.459Z,22.58
2022-07-26T01:19:39.367Z,22.55
2022-07-26T01:22:14.182Z,22.56
2022-07-26T01:24:42.463Z,22.54
2022-07-26T01:27:10.317Z,22.52
2022-07-26T01:29:38.071Z,22.52
2022-07-26T01:32:06.733Z,22.50
2022-07-26T01:34:34.520Z,22.49
2022-07-26T01:37:03.165Z,22.46
2022-07-26T01:39:32.554Z,22.47
2022-07-26T01:42:00.287Z,22.48
2022-07-26T01:44:28.130Z,22.45
2022-07-26T01:46:56.445Z,22.41
2022-07-26T01:49:24.254Z,22.40
2022-07-26T01:51:51.991Z,22.39
2022-07-26T01:54:22.345Z,22.38
2022-07-26T01:56:53.691Z,22.37
2022-07-26T01:59:21.655Z,22.35
2022-07-26T02:01:49.508Z,22.35
2022-07-26T02:04:31.518Z,22.33
2022-07-26T02:06:59.580Z,22.34
2022-07-26T02:09:27.366Z,22.34
2022-07-26T02:12:00.904Z,22.34
2022-07-26T02:14:28.649Z,22.33
2022-07-26T02:17:00.093Z,22.34
2022-07-26T02:19:28.986Z,22.34
2022-07-26T02:21:57.646Z,22.34
2022-07-26T02:24:27.225Z,22.33
2022-07-26T02:26:54.996Z,22.35
2022-07-26T02:29:24.560Z,22.35
2022-07-26T02:31:52.937Z,22.35
2022-07-26T02:34:21.039Z,22.33
2022-07-26T02:36:48.802Z,22.33
2022-07-26T02:39:18.027Z,22.31
2022-07-26T02:41:45.823Z,22.31
2022-07-26T02:44:13.901Z,22.30
2022-07-26T02:46:43.168Z,22.29
2022-07-26T02:49:10.988Z,22.26
2022-07-26T02:51:38.990Z,22.27
2022-07-26T02:54:07.096Z,22.26
2022-07-26T02:56:35.376Z,22.26
2022-07-26T02:59:03.098Z,22.23
2022-07-26T03:01:30.926Z,22.26
2022-07-26T03:04:00.299Z,22.27
2022-07-26T03:06:28.505Z,22.23
2022-07-26T03:08:56.453Z,22.23
2022-07-26T03:11:24.192Z,22.22
2022-07-26T03:13:51.926Z,22.22
2022-07-26T03:16:22.726Z,22.22
2022-07-26T03:18:52.614Z,22.20
2022-07-26T03:21:22.083Z,22.21
2022-07-26T03:23:49.925Z,22.20
2022-07-26T03:26:17.913Z,22.20
2022-07-26T03:28:45.971Z,22.17
2022-07-26T03:31:14.238Z,22.17
2022-07-26T03:33:42.179Z,22.16
2022-07-26T03:36:11.487Z,22.16
2022-07-26T03:38:44.470Z,22.15
2022-07-26T03:41:13.616Z,22.17
2022-07-26T03:43:41.738Z,22.18
2022-07-26T03:46:09.904Z,22.18
2022-07-26T03:48:38.154Z,22.18
2022-07-26T03:51:06.306Z,22.20
2022-07-26T03:53:34.829Z,22.20
2022-07-26T03:56:21.682Z,22.22
2022-07-26T03:58:49.700Z,22.20
2022-07-26T04:01:17.553Z,22.20
2022-07-26T04:03:47.706Z,22.19
2022-07-26T04:06:16.522Z,22.16
2022-07-26T04:08:45.505Z,22.14
2022-07-26T04:11:14.973Z,22.14
2022-07-26T04:13:43.030Z,22.14
2022-07-26T04:16:11.374Z,22.14
2022-07-26T04:18:39.358Z,22.14
2022-07-26T04:21:07.617Z,22.15
2022-07-26T04:23:35.343Z,22.14
2022-07-26T04:26:03.156Z,22.14
2022-07-26T04:28:33.494Z,22.14
2022-07-26T04:31:02.167Z,22.11
2022-07-26T04:33:29.983Z,22.10
2022-07-26T04:35:57.878Z,22.10
2022-07-26T04:38:25.611Z,22.10
2022-07-26T04:40:53.523Z,22.09
2022-07-26T04:43:21.477Z,22.07
2022-07-26T04:45:50.681Z,22.08
2022-07-26T04:48:19.223Z,22.08
2022-07-26T04:50:47.114Z,22.07
2022-07-26T04:53:14.873Z,22.09
2022-07-26T04:55:43.160Z,22.06
2022-07-26T04:58:11.602Z,22.07
2022-07-26T05:01:08.858Z,22.06
2022-07-26T05:03:29.260Z,22.10
2022-07-26T05:05:57.062Z,22.15
2022-07-26T05:08:24.828Z,22.21
2022-07-26T05:10:55.568Z,22.27
2022-07-26T05:13:29.871Z,22.34
2022-07-26T05:15:59.260Z,22.40
2022-07-26T05:18:29.314Z,22.49
2022-07-26T05:21:01.735Z,22.51
2022-07-26T05:23:29.850Z,22.56
2022-07-26T05:25:57.620Z,22.62
2022-07-26T05:28:25.532Z,22.63
2022-07-26T05:30:53.379Z,22.66
2022-07-26T05:33:21.249Z,22.71
2022-07-26T05:35:49.072Z,22.75
2022-07-26T05:38:18.348Z,22.81
2022-07-26T05:40:50.530Z,22.86
2022-07-26T05:43:19.071Z,22.92
2022-07-26T05:45:47.811Z,22.95
2022-07-26T05:48:15.554Z,22.99
2022-07-26T05:50:43.567Z,23.05
2022-07-26T05:53:11.326Z,23.07
2022-07-26T05:55:40.420Z,23.11
2022-07-26T05:58:08.527Z,23.13
2022-07-26T06:00:36.695Z,23.16
2022-07-26T06:03:22.201Z,23.19
2022-07-26T06:05:51.150Z,23.20
2022-07-26T06:08:20.064Z,23.24
2022-07-26T06:10:50.140Z,23.25
2022-07-26T06:13:18.172Z,23.25
2022-07-26T06:15:46.111Z,23.23
2022-07-26T06:18:15.488Z,23.17
2022-07-26T06:20:44.098Z,23.10
2022-07-26T06:23:12.362Z,23.09
2022-07-26T06:25:41.153Z,23.03
2022-07-26T06:28:11.892Z,23.01
2022-07-26T06:30:40.641Z,22.93
2022-07-26T06:33:09.563Z,22.91
2022-07-26T06:35:39.128Z,22.89
2022-07-26T06:38:07.837Z,22.88
2022-07-26T06:40:36.340Z,22.87
2022-07-26T06:43:05.208Z,22.86
2022-07-26T06:45:34.742Z,22.86
2022-07-26T06:48:03.034Z,22.81
2022-07-26T06:50:30.975Z,22.80
2022-07-26T06:52:58.939Z,22.80
2022-07-26T06:55:26.715Z,22.80
2022-07-26T06:57:54.450Z,22.82
2022-07-26T07:00:22.672Z,22.79
2022-07-26T07:02:51.788Z,22.79
2022-07-26T07:05:19.697Z,22.78
2022-07-26T07:07:47.770Z,22.75
2022-07-26T07:10:15.927Z,22.77
2022-07-26T07:12:44.883Z,22.73
2022-07-26T07:15:13.128Z,22.74
2022-07-26T07:17:40.923Z,22.74
2022-07-26T07:20:11.205Z,22.74
2022-07-26T07:22:39.222Z,22.77
2022-07-26T07:25:07.524Z,22.70
2022-07-26T07:27:36.507Z,22.73
2022-07-26T07:30:05.342Z,22.73
2022-07-26T07:32:33.174Z,22.72
2022-07-26T07:35:03.251Z,22.70
2022-07-26T07:37:52.260Z,22.70
2022-07-26T07:40:22.469Z,22.68
2022-07-26T07:42:50.481Z,22.66
2022-07-26T07:45:18.315Z,22.65
2022-07-26T07:47:46.367Z,22.66
2022-07-26T07:50:14.127Z,22.66
2022-07-26T07:52:43.279Z,22.67
2022-07-26T07:55:37.795Z,22.72
2022-07-26T07:58:00.549Z,22.72
2022-07-26T08:00:28.438Z,22.75
2022-07-26T08:02:56.186Z,22.75
2022-07-26T08:05:23.913Z,22.78
2022-07-26T08:07:53.990Z,22.81
2022-07-26T08:10:22.352Z,22.83
2022-07-26T08:12:51.210Z,22.83
2022-07-26T08:15:21.273Z,22.85
2022-07-26T08:17:54.063Z,22.84
2022-07-26T08:20:23.644Z,22.86
2022-07-26T08:22:54.442Z,22.89
2022-07-26T08:25:23.485Z,22.90
2022-07-26T08:28:09.221Z,22.91
2022-07-26T08:30:39.786Z,22.92
2022-07-26T08:33:07.711Z,22.92
2022-07-26T08:35:35.765Z,22.93
2022-07-26T08:38:05.184Z,22.94
2022-07-26T08:40:34.747Z,22.94
2022-07-26T08:43:03.155Z,22.93
2022-07-26T08:45:32.810Z,22.97
2022-07-26T08:48:18.361Z,22.94
2022-07-26T08:50:47.129Z,22.99
2022-07-26T08:53:17.667Z,23.01
2022-07-26T08:56:06.075Z,23.02
2022-07-26T08:58:36.317Z,23.06
2022-07-26T09:01:07.452Z,23.08
2022-07-26T09:03:38.076Z,23.10
2022-07-26T09:06:14.476Z,23.12
2022-07-26T09:08:44.709Z,23.13
2022-07-26T09:11:34.754Z,23.14
2022-07-26T09:14:05.201Z,23.20
2022-07-26T09:16:39.055Z,23.25
2022-07-26T09:19:17.916Z,23.36
2022-07-26T09:21:47.301Z,23.41
2022-07-26T09:24:34.802Z,23.47
2022-07-26T09:27:05.025Z,23.49
2022-07-26T09:29:44.273Z,23.59
2022-07-26T09:32:17.004Z,23.64
2022-07-26T09:34:52.653Z,23.72
2022-07-26T09:37:34.286Z,23.83
2022-07-26T09:40:06.827Z,23.93
2022-07-26T09:42:35.798Z,24.05
2022-07-26T09:45:15.782Z,24.18
2022-07-26T09:47:43.570Z,24.28
2022-07-26T09:50:14.085Z,24.37
2022-07-26T09:52:58.186Z,24.42
2022-07-26T09:55:36.390Z,24.52
2022-07-26T09:58:11.749Z,24.59
2022-07-26T10:00:39.882Z,24.68
2022-07-26T10:03:08.283Z,24.77
2022-07-26T10:05:37.694Z,24.86
2022-07-26T10:08:08.150Z,24.96
2022-07-26T10:10:45.078Z,25.07
2022-07-26T10:13:13.554Z,25.14
2022-07-26T10:15:43.641Z,25.20
2022-07-26T10:18:16.796Z,25.28
2022-07-26T10:20:52.057Z,25.39
2022-07-26T10:23:41.146Z,25.48
2022-07-26T10:26:12.862Z,25.58
2022-07-26T10:28:42.145Z,25.66
2022-07-26T10:31:33.088Z,25.72
2022-07-26T10:34:04.247Z,25.80
2022-07-26T10:36:37.407Z,25.90
2022-07-26T10:39:09.892Z,25.94
2022-07-26T10:41:45.283Z,25.99
2022-07-26T10:44:15.831Z,26.09
2022-07-26T10:47:03.223Z,26.19
2022-07-26T10:49:34.035Z,26.25
2022-07-26T10:52:16.460Z,26.34
2022-07-26T10:55:21.064Z,26.41
2022-07-26T10:57:50.553Z,26.45
2022-07-26T11:00:22.901Z,26.46
2022-07-26T11:03:01.211Z,26.45
2022-07-26T11:05:32.546Z,26.38
2022-07-26T11:08:08.220Z,26.30
2022-07-26T11:10:39.333Z,26.25
2022-07-26T11:13:15.244Z,26.15
2022-07-26T11:15:45.809Z,26.00
2022-07-26T11:18:20.083Z,25.95
2022-07-26T11:20:53.148Z,25.88
2022-07-26T11:23:36.507Z,25.81
2022-07-26T11:26:10.906Z,25.76
2022-07-26T11:28:55.235Z,25.69
2022-07-26T11:31:48.176Z,25.59
2022-07-26T11:34:19.057Z,25.57
2022-07-26T11:36:48.018Z,25.53
2022-07-26T11:39:17.091Z,25.49
2022-07-26T11:41:44.914Z,25.49
2022-07-26T11:44:22.371Z,25.51
2022-07-26T11:46:51.899Z,25.52
2022-07-26T11:49:22.901Z,25.55
2022-07-26T11:51:55.318Z,25.57
2022-07-26T11:54:24.003Z,25.60
2022-07-26T11:56:54.061Z,25.64
2022-07-26T11:59:24.697Z,25.65
2022-07-26T12:01:53.218Z,25.64
2022-07-26T12:04:24.419Z,25.63
2022-07-26T12:06:53.745Z,25.62
2022-07-26T12:09:32.624Z,25.65
2022-07-26T12:12:02.211Z,25.60
2022-07-26T12:14:35.043Z,25.65
2022-07-26T12:17:12.523Z,25.64
2022-07-26T12:19:41.750Z,25.61
2022-07-26T12:22:12.645Z,25.44
2022-07-26T12:24:44.493Z,25.45
2022-07-26T12:27:15.826Z,25.45
2022-07-26T12:29:48.231Z,25.36
2022-07-26T12:32:19.913Z,25.23
2022-07-26T12:34:59.896Z,25.20
2022-07-26T12:37:39.732Z,25.08
2022-07-26T12:40:12.070Z,25.09
2022-07-26T12:42:41.329Z,25.01
2022-07-26T12:45:12.502Z,25.03
2022-07-26T12:47:42.321Z,25.01
2022-07-26T12:50:12.486Z,24.94
2022-07-26T12:52:40.740Z,24.81
2022-07-26T12:55:11.527Z,24.75
2022-07-26T12:57:45.975Z,24.72
2022-07-26T13:00:18.596Z,24.76
2022-07-26T13:02:47.192Z,24.76
2022-07-26T13:05:16.132Z,24.80
2022-07-26T13:07:44.431Z,24.63
2022-07-26T13:13:00.720Z,24.72
2022-07-26T13:15:36.174Z,24.75
2022-07-26T13:18:07.314Z,24.80
2022-07-26T13:20:36.194Z,24.78
2022-07-26T13:23:04.265Z,24.73
2022-07-26T13:25:40.018Z,24.68
2022-07-26T13:28:09.461Z,24.69
2022-07-26T13:30:43.017Z,24.68
2022-07-26T13:33:11.700Z,24.55
2022-07-26T13:35:41.362Z,24.43
2022-07-26T13:38:10.189Z,24.43
2022-07-26T13:40:38.229Z,24.40
2022-07-26T13:43:06.267Z,24.44
2022-07-26T13:45:34.578Z,24.37
2022-07-26T13:48:04.378Z,24.33
2022-07-26T13:50:32.450Z,24.28
2022-07-26T13:53:00.669Z,24.26
2022-07-26T13:55:28.708Z,24.38
2022-07-26T13:57:58.149Z,24.29
2022-07-26T14:00:28.720Z,24.34
2022-07-26T14:02:59.717Z,24.41
2022-07-26T14:05:29.479Z,24.23
2022-07-26T14:07:57.479Z,24.14
2022-07-26T14:10:26.284Z,24.13
2022-07-26T14:12:54.546Z,24.08
2022-07-26T14:15:23.701Z,23.96
2022-07-26T14:17:52.644Z,23.78
2022-07-26T14:20:21.276Z,23.72
2022-07-26T14:22:53.659Z,23.76
2022-07-26T14:25:22.231Z,23.77
2022-07-26T14:27:51.021Z,23.78
2022-07-26T14:30:19.816Z,23.80
2022-07-26T14:32:48.271Z,23.74
2022-07-26T14:35:17.710Z,23.82
2022-07-26T14:37:46.383Z,23.76
2022-07-26T14:40:17.532Z,23.72
2022-07-26T14:42:46.807Z,23.77
2022-07-26T14:45:15.858Z,23.84
2022-07-26T14:47:44.050Z,23.77
2022-07-26T14:50:13.999Z,23.64
2022-07-26T14:52:43.933Z,23.70
2022-07-26T14:55:12.391Z,23.78
2022-07-26T14:57:42.547Z,23.71
2022-07-26T15:00:13.058Z,23.77
2022-07-26T15:02:41.626Z,23.82
2022-07-26T15:05:10.865Z,23.88
2022-07-26T15:07:39.415Z,23.91
2022-07-26T15:10:09.365Z,23.77
2022-07-26T15:12:37.645Z,23.72
2022-07-26T15:15:08.636Z,23.62
2022-07-26T15:17:37.531Z,23.66
2022-07-26T15:20:07.286Z,23.61
2022-07-26T15:22:35.944Z,23.63
2022-07-26T15:25:04.404Z,23.38
2022-07-26T15:27:32.499Z,23.51
2022-07-26T15:30:05.835Z,23.51
2022-07-26T15:32:37.934Z,23.56
2022-07-26T15:35:07.421Z,23.69
2022-07-26T15:37:43.901Z,23.76
2022-07-26T15:40:13.448Z,23.71
2022-07-26T15:42:44.295Z,23.57
2022-07-26T15:45:14.153Z,23.72
2022-07-26T15:47:54.787Z,23.70
2022-07-26T15:50:24.367Z,23.71
2022-07-26T15:52:52.680Z,23.74
2022-07-26T15:55:22.211Z,23.70
2022-07-26T15:57:50.261Z,23.65
2022-07-26T16:00:18.967Z,23.71
2022-07-26T16:02:48.779Z,23.77
2022-07-26T16:05:17.255Z,23.84
2022-07-26T16:07:46.442Z,23.74
2022-07-26T16:10:16.405Z,23.80
2022-07-26T16:12:44.338Z,23.76
2022-07-26T16:15:12.825Z,23.82
2022-07-26T16:17:41.343Z,23.60
2022-07-26T16:20:11.331Z,23.61
2022-07-26T16:22:41.225Z,23.53
2022-07-26T16:25:13.221Z,23.58
2022-07-26T16:27:42.261Z,23.64
2022-07-26T16:30:11.631Z,23.57
2022-07-26T16:32:39.409Z,23.54
2022-07-26T16:35:08.319Z,23.56
2022-07-26T16:37:37.749Z,23.50
2022-07-26T16:40:06.898Z,23.56
2022-07-26T16:42:42.399Z,23.59
2022-07-26T16:45:10.850Z,23.62
2022-07-26T16:47:38.565Z,23.62
2022-07-26T16:50:07.682Z,23.58
2022-07-26T16:52:37.223Z,23.60
2022-07-26T16:55:10.627Z,23.58
2022-07-26T16:57:39.418Z,23.52
2022-07-26T17:00:10.428Z,23.45
2022-07-26T17:02:39.570Z,23.46
2022-07-26T17:05:08.710Z,23.38
2022-07-26T17:07:38.183Z,23.32
2022-07-26T17:10:07.678Z,23.39
2022-07-26T17:12:35.838Z,23.39
2022-07-26T17:15:04.066Z,23.46
2022-07-26T17:17:32.023Z,23.43
2022-07-26T17:20:00.088Z,23.41
2022-07-26T17:22:28.124Z,23.23
2022-07-26T17:24:57.398Z,23.30
2022-07-26T17:27:25.326Z,23.29
2022-07-26T17:29:53.308Z,23.20
2022-07-26T17:32:21.491Z,23.28
2022-07-26T17:34:49.561Z,23.35
2022-07-26T17:37:17.442Z,23.27
2022-07-26T17:39:53.158Z,23.13
2022-07-26T17:42:23.754Z,23.24
2022-07-26T17:44:52.286Z,23.24
2022-07-26T17:47:29.520Z,23.24
2022-07-26T17:52:48.362Z,23.23
2022-07-26T17:55:16.398Z,23.15
2022-07-26T17:57:45.968Z,23.11
2022-07-26T18:00:15.227Z,23.13
2022-07-26T18:02:43.592Z,23.20
2022-07-26T18:05:12.153Z,23.22
2022-07-26T18:07:40.592Z,23.23
2022-07-26T18:10:10.342Z,23.07
2022-07-26T18:12:38.213Z,23.11
2022-07-26T18:15:09.014Z,23.00
2022-07-26T18:17:37.533Z,22.86
2022-07-26T18:20:07.647Z,22.89
2022-07-26T18:22:35.613Z,22.83
2022-07-26T18:25:04.012Z,22.77
2022-07-26T18:27:31.923Z,22.75
2022-07-26T18:30:00.667Z,22.81
2022-07-26T18:32:29.981Z,22.69
2022-07-26T18:34:57.919Z,22.65
2022-07-26T18:37:25.949Z,22.65
2022-07-26T18:39:57.621Z,22.65
2022-07-26T18:42:26.325Z,22.67
2022-07-26T18:44:54.303Z,22.68
2022-07-26T18:47:22.643Z,22.68
2022-07-26T18:49:52.119Z,22.73
2022-07-26T18:52:32.167Z,22.66
2022-07-26T18:55:06.899Z,22.61
2022-07-26T18:57:35.178Z,22.59
2022-07-26T19:00:03.448Z,22.55
2022-07-26T19:02:32.183Z,22.56
2022-07-26T19:05:01.519Z,22.51
2022-07-26T19:07:30.120Z,22.50
2022-07-26T19:09:58.875Z,22.42
2022-07-26T19:12:27.943Z,22.41
2022-07-26T19:14:56.054Z,22.42
2022-07-26T19:17:24.114Z,22.37
2022-07-26T19:19:52.090Z,22.42
2022-07-26T19:22:21.760Z,22.43
2022-07-26T19:24:49.895Z,22.48
2022-07-26T19:27:18.159Z,22.40
2022-07-26T19:29:48.659Z,22.44
2022-07-26T19:32:16.581Z,22.33
2022-07-26T19:34:44.769Z,22.28
2022-07-26T19:37:13.006Z,22.14
2022-07-26T19:39:42.344Z,22.10
2022-07-26T19:42:10.406Z,22.06
2022-07-26T19:44:38.297Z,22.15
2022-07-26T19:47:06.476Z,22.13
2022-07-26T19:49:34.436Z,22.04
2022-07-26T19:52:02.415Z,21.90
2022-07-26T19:54:30.485Z,21.88
2022-07-26T19:57:00.135Z,21.90
2022-07-26T19:59:27.969Z,21.87
2022-07-26T20:01:58.456Z,21.91
2022-07-26T20:04:27.027Z,21.93
2022-07-26T20:06:55.834Z,21.89
2022-07-26T20:09:23.796Z,21.95
2022-07-26T20:11:52.164Z,21.87
2022-07-26T20:14:21.802Z,21.95
2022-07-26T20:16:54.317Z,21.93
2022-07-26T20:19:26.784Z,21.92
2022-07-26T20:21:55.423Z,21.94
2022-07-26T20:24:23.406Z,21.91
2022-07-26T20:26:51.434Z,21.97
2022-07-26T20:29:19.619Z,21.92
2022-07-26T20:31:49.113Z,21.90
2022-07-26T20:34:17.081Z,21.95
2022-07-26T20:36:45.044Z,21.90
2022-07-26T20:39:13.312Z,21.88
2022-07-26T20:41:41.438Z,21.94
2022-07-26T20:44:09.755Z,21.92
2022-07-26T20:46:40.232Z,21.92
2022-07-26T20:49:10.921Z,21.92
2022-07-26T20:51:39.615Z,21.95
2022-07-26T20:54:08.616Z,21.93
2022-07-26T20:56:36.724Z,21.88
2022-07-26T20:59:05.547Z,21.80
2022-07-26T21:01:34.785Z,21.77
2022-07-26T21:04:03.663Z,21.68
2022-07-26T21:06:34.606Z,21.47
2022-07-26T21:09:09.750Z,21.53
2022-07-26T21:11:39.310Z,21.49
2022-07-26T21:14:07.929Z,21.33
2022-07-26T21:16:36.275Z,21.19
2022-07-26T21:19:05.748Z,21.21
2022-07-26T21:21:37.061Z,21.26
2022-07-26T21:24:06.564Z,21.16
2022-07-26T21:26:34.710Z,21.17
2022-07-26T21:29:02.785Z,21.15
2022-07-26T21:31:31.039Z,21.18
2022-07-26T21:33:58.998Z,21.03
2022-07-26T21:36:27.377Z,21.16
2022-07-26T21:38:57.135Z,21.27
2022-07-26T21:41:25.046Z,21.19
2022-07-26T21:43:53.120Z,21.20
2022-07-26T21:46:21.577Z,21.22
2022-07-26T21:48:49.777Z,21.18
2022-07-26T21:51:18.041Z,21.07
2022-07-26T21:53:46.686Z,21.09
2022-07-26T21:56:16.206Z,20.94
2022-07-26T21:58:44.206Z,20.91
2022-07-26T22:01:15.543Z,20.88
2022-07-26T22:03:43.712Z,20.97
2022-07-26T22:06:11.899Z,20.92
2022-07-26T22:08:41.185Z,20.85
2022-07-26T22:11:09.194Z,20.90
2022-07-26T22:13:38.866Z,20.90
2022-07-26T22:16:08.385Z,20.94
2022-07-26T22:18:36.298Z,20.97
2022-07-26T22:21:04.646Z,20.95
2022-07-26T22:23:32.701Z,20.92
2022-07-26T22:26:02.162Z,20.84
2022-07-26T22:28:31.069Z,20.82
2022-07-26T22:31:00.572Z,20.83
2022-07-26T22:33:28.884Z,20.75
2022-07-26T22:35:57.144Z,20.81
2022-07-26T22:38:25.188Z,20.78
2022-07-26T22:40:53.468Z,20.73
2022-07-26T22:43:21.557Z,20.57
2022-07-26T22:45:49.636Z,20.56
2022-07-26T22:48:19.100Z,20.51
2022-07-26T22:50:47.690Z,20.37
2022-07-26T22:53:16.357Z,20.33
2022-07-26T22:55:44.456Z,20.32
2022-07-26T22:58:12.924Z,20.28
2022-07-26T23:00:40.946Z,20.31
2022-07-26T23:03:19.347Z,20.29
2022-07-26T23:05:52.143Z,20.22
2022-07-26T23:11:08.888Z,20.19
2022-07-26T23:13:37.470Z,20.24
2022-07-26T23:16:06.150Z,20.21
2022-07-26T23:18:35.623Z,20.23
2022-07-26T23:21:05.885Z,20.23
2022-07-26T23:23:34.176Z,20.12
2022-07-26T23:26:02.775Z,20.11
2022-07-26T23:28:36.612Z,20.12
2022-07-26T23:31:06.613Z,20.12
2022-07-26T23:33:52.701Z,20.04
2022-07-26T23:36:24.966Z,20.00
2022-07-26T23:38:54.085Z,19.97
2022-07-26T23:41:22.747Z,19.97
2022-07-26T23:43:51.192Z,19.95
2022-07-26T23:46:19.844Z,19.94
2022-07-26T23:48:48.185Z,19.85
2022-07-26T23:51:16.805Z,19.84
2022-07-26T23:53:46.327Z,19.87
2022-07-26T23:56:14.389Z,19.85
2022-07-26T23:58:43.115Z,19.82
